sensor_id;sensor_type;location;lat;lon;timestamp;P1;durP1;ratioP1;P2;durP2;ratioP2
79348;SDS011;68817;48.110;11.660;2023-07-16T00:00:04;7.65;;;4.47;;
79348;SDS011;68817;48.110;11.660;2023-07-16T00:02:31;5.75;;;3.38;;
79348;SDS011;68817;48.110;11.660;2023-07-16T00:04:56;6.13;;;3.90;;
79348;SDS011;68817;48.110;11.660;2023-07-16T00:07:22;5.90;;;3.28;;
79348;SDS011;68817;48.110;11.660;2023-07-16T00:09:47;4.43;;;3.60;;
79348;SDS011;68817;48.110;11.660;2023-07-16T00:12:13;4.15;;;3.75;;
79348;SDS011;68817;48.110;11.660;2023-07-16T00:14:38;7.38;;;3.88;;
79348;SDS011;68817;48.110;11.660;2023-07-16T00:17:03;5.22;;;3.60;;
79348;SDS011;68817;48.110;11.660;2023-07-16T00:19:29;6.03;;;3.60;;
79348;SDS011;68817;48.110;11.660;2023-07-16T00:21:54;6.53;;;3.53;;
79348;SDS011;68817;48.110;11.660;2023-07-16T00:24:19;7.45;;;4.05;;
79348;SDS011;68817;48.110;11.660;2023-07-16T00:26:45;4.88;;;3.58;;
79348;SDS011;68817;48.110;11.660;2023-07-16T00:29:10;5.28;;;3.50;;
79348;SDS011;68817;48.110;11.660;2023-07-16T00:31:35;6.57;;;3.67;;
79348;SDS011;68817;48.110;11.660;2023-07-16T00:34:01;5.03;;;3.80;;
79348;SDS011;68817;48.110;11.660;2023-07-16T00:36:26;5.07;;;3.47;;
79348;SDS011;68817;48.110;11.660;2023-07-16T00:38:52;6.05;;;3.88;;
79348;SDS011;68817;48.110;11.660;2023-07-16T00:41:17;7.13;;;4.03;;
79348;SDS011;68817;48.110;11.660;2023-07-16T00:43:42;6.53;;;3.70;;
79348;SDS011;68817;48.110;11.660;2023-07-16T00:46:08;4.75;;;3.75;;
79348;SDS011;68817;48.110;11.660;2023-07-16T00:48:34;6.80;;;3.97;;
79348;SDS011;68817;48.110;11.660;2023-07-16T00:51:00;7.63;;;3.83;;
79348;SDS011;68817;48.110;11.660;2023-07-16T00:53:26;5.60;;;3.28;;
79348;SDS011;68817;48.110;11.660;2023-07-16T00:55:52;5.78;;;3.83;;
79348;SDS011;68817;48.110;11.660;2023-07-16T00:58:18;5.95;;;3.88;;
79348;SDS011;68817;48.110;11.660;2023-07-16T01:00:43;6.80;;;3.97;;
79348;SDS011;68817;48.110;11.660;2023-07-16T01:03:10;6.65;;;4.43;;
79348;SDS011;68817;48.110;11.660;2023-07-16T01:06:00;5.82;;;3.85;;
79348;SDS011;68817;48.110;11.660;2023-07-16T01:08:41;8.32;;;3.90;;
79348;SDS011;68817;48.110;11.660;2023-07-16T01:11:11;6.35;;;3.78;;
79348;SDS011;68817;48.110;11.660;2023-07-16T01:13:37;6.47;;;4.43;;
79348;SDS011;68817;48.110;11.660;2023-07-16T01:16:02;6.25;;;3.83;;
79348;SDS011;68817;48.110;11.660;2023-07-16T01:18:28;5.90;;;4.82;;
79348;SDS011;68817;48.110;11.660;2023-07-16T01:20:54;7.65;;;4.03;;
79348;SDS011;68817;48.110;11.660;2023-07-16T01:25:48;7.15;;;4.38;;
79348;SDS011;68817;48.110;11.660;2023-07-16T01:28:48;6.50;;;4.57;;
79348;SDS011;68817;48.110;11.660;2023-07-16T01:31:20;6.85;;;4.35;;
79348;SDS011;68817;48.110;11.660;2023-07-16T01:33:48;6.07;;;4.32;;
79348;SDS011;68817;48.110;11.660;2023-07-16T01:36:15;6.00;;;4.82;;
79348;SDS011;68817;48.110;11.660;2023-07-16T01:38:41;6.50;;;4.43;;
79348;SDS011;68817;48.110;11.660;2023-07-16T01:41:07;6.82;;;4.50;;
79348;SDS011;68817;48.110;11.660;2023-07-16T01:43:32;9.70;;;4.65;;
79348;SDS011;68817;48.110;11.660;2023-07-16T01:45:57;7.15;;;4.72;;
79348;SDS011;68817;48.110;11.660;2023-07-16T01:48:33;6.93;;;4.32;;
79348;SDS011;68817;48.110;11.660;2023-07-16T01:50:59;5.72;;;4.53;;
79348;SDS011;68817;48.110;11.660;2023-07-16T01:53:25;5.20;;;4.25;;
79348;SDS011;68817;48.110;11.660;2023-07-16T01:55:50;8.40;;;4.82;;
79348;SDS011;68817;48.110;11.660;2023-07-16T01:58:16;5.60;;;4.30;;
79348;SDS011;68817;48.110;11.660;2023-07-16T02:00:42;6.60;;;4.47;;
79348;SDS011;68817;48.110;11.660;2023-07-16T02:03:07;5.47;;;4.32;;
79348;SDS011;68817;48.110;11.660;2023-07-16T02:05:33;7.43;;;4.53;;
79348;SDS011;68817;48.110;11.660;2023-07-16T02:07:58;8.32;;;4.75;;
79348;SDS011;68817;48.110;11.660;2023-07-16T02:10:23;7.72;;;4.53;;
79348;SDS011;68817;48.110;11.660;2023-07-16T02:12:49;9.15;;;4.63;;
79348;SDS011;68817;48.110;11.660;2023-07-16T02:15:14;7.30;;;4.80;;
79348;SDS011;68817;48.110;11.660;2023-07-16T02:17:41;5.70;;;4.47;;
79348;SDS011;68817;48.110;11.660;2023-07-16T02:20:08;6.78;;;4.45;;
79348;SDS011;68817;48.110;11.660;2023-07-16T02:22:35;7.78;;;4.72;;
79348;SDS011;68817;48.110;11.660;2023-07-16T02:25:01;6.72;;;4.85;;
79348;SDS011;68817;48.110;11.660;2023-07-16T02:27:26;6.00;;;4.47;;
79348;SDS011;68817;48.110;11.660;2023-07-16T02:29:52;7.53;;;4.85;;
79348;SDS011;68817;48.110;11.660;2023-07-16T02:32:17;6.70;;;4.65;;
79348;SDS011;68817;48.110;11.660;2023-07-16T02:34:43;6.30;;;4.63;;
79348;SDS011;68817;48.110;11.660;2023-07-16T02:37:08;6.65;;;5.07;;
79348;SDS011;68817;48.110;11.660;2023-07-16T02:39:34;7.50;;;4.88;;
79348;SDS011;68817;48.110;11.660;2023-07-16T02:41:59;6.30;;;4.55;;
79348;SDS011;68817;48.110;11.660;2023-07-16T02:44:24;8.25;;;5.05;;
79348;SDS011;68817;48.110;11.660;2023-07-16T02:46:50;5.88;;;4.72;;
79348;SDS011;68817;48.110;11.660;2023-07-16T02:49:16;7.07;;;5.18;;
79348;SDS011;68817;48.110;11.660;2023-07-16T02:51:41;6.97;;;5.22;;
79348;SDS011;68817;48.110;11.660;2023-07-16T02:54:07;5.97;;;4.60;;
79348;SDS011;68817;48.110;11.660;2023-07-16T02:56:33;7.30;;;5.13;;
79348;SDS011;68817;48.110;11.660;2023-07-16T02:58:58;5.53;;;4.88;;
79348;SDS011;68817;48.110;11.660;2023-07-16T03:01:24;8.10;;;4.50;;
79348;SDS011;68817;48.110;11.660;2023-07-16T03:03:49;6.63;;;5.00;;
79348;SDS011;68817;48.110;11.660;2023-07-16T03:06:15;6.10;;;4.78;;
79348;SDS011;68817;48.110;11.660;2023-07-16T03:08:41;8.43;;;4.70;;
79348;SDS011;68817;48.110;11.660;2023-07-16T03:11:06;7.18;;;4.97;;
79348;SDS011;68817;48.110;11.660;2023-07-16T03:13:32;7.70;;;4.35;;
79348;SDS011;68817;48.110;11.660;2023-07-16T03:15:58;5.55;;;4.00;;
79348;SDS011;68817;48.110;11.660;2023-07-16T03:18:27;5.93;;;4.40;;
79348;SDS011;68817;48.110;11.660;2023-07-16T03:20:56;6.05;;;4.25;;
79348;SDS011;68817;48.110;11.660;2023-07-16T03:23:22;5.68;;;3.97;;
79348;SDS011;68817;48.110;11.660;2023-07-16T03:25:48;7.18;;;4.25;;
79348;SDS011;68817;48.110;11.660;2023-07-16T03:28:13;4.97;;;3.67;;
79348;SDS011;68817;48.110;11.660;2023-07-16T03:30:39;4.78;;;3.25;;
79348;SDS011;68817;48.110;11.660;2023-07-16T03:33:04;5.05;;;3.03;;
79348;SDS011;68817;48.110;11.660;2023-07-16T03:35:30;5.47;;;3.55;;
79348;SDS011;68817;48.110;11.660;2023-07-16T03:37:55;4.90;;;3.42;;
79348;SDS011;68817;48.110;11.660;2023-07-16T03:40:24;8.15;;;3.30;;
79348;SDS011;68817;48.110;11.660;2023-07-16T03:42:50;4.53;;;3.00;;
79348;SDS011;68817;48.110;11.660;2023-07-16T03:45:16;4.25;;;2.58;;
79348;SDS011;68817;48.110;11.660;2023-07-16T03:47:42;3.40;;;2.55;;
79348;SDS011;68817;48.110;11.660;2023-07-16T03:50:07;4.60;;;2.80;;
79348;SDS011;68817;48.110;11.660;2023-07-16T03:52:33;4.22;;;2.55;;
79348;SDS011;68817;48.110;11.660;2023-07-16T03:54:58;4.63;;;3.13;;
79348;SDS011;68817;48.110;11.660;2023-07-16T03:57:24;5.03;;;2.92;;
79348;SDS011;68817;48.110;11.660;2023-07-16T03:59:50;4.18;;;3.00;;
79348;SDS011;68817;48.110;11.660;2023-07-16T04:02:15;5.85;;;2.92;;
79348;SDS011;68817;48.110;11.660;2023-07-16T04:04:41;5.18;;;2.97;;
79348;SDS011;68817;48.110;11.660;2023-07-16T04:07:07;4.90;;;3.15;;
79348;SDS011;68817;48.110;11.660;2023-07-16T04:09:32;4.75;;;3.03;;
79348;SDS011;68817;48.110;11.660;2023-07-16T04:11:58;3.75;;;3.00;;
79348;SDS011;68817;48.110;11.660;2023-07-16T04:14:23;4.53;;;3.13;;
79348;SDS011;68817;48.110;11.660;2023-07-16T04:16:48;4.72;;;2.70;;
79348;SDS011;68817;48.110;11.660;2023-07-16T04:19:14;3.22;;;2.45;;
79348;SDS011;68817;48.110;11.660;2023-07-16T04:21:39;4.97;;;2.70;;
79348;SDS011;68817;48.110;11.660;2023-07-16T04:24:05;3.92;;;2.30;;
79348;SDS011;68817;48.110;11.660;2023-07-16T04:26:31;3.63;;;2.38;;
79348;SDS011;68817;48.110;11.660;2023-07-16T04:28:56;6.15;;;2.72;;
79348;SDS011;68817;48.110;11.660;2023-07-16T04:31:22;6.35;;;3.63;;
79348;SDS011;68817;48.110;11.660;2023-07-16T04:33:48;7.15;;;3.13;;
79348;SDS011;68817;48.110;11.660;2023-07-16T04:36:13;10.90;;;4.15;;
79348;SDS011;68817;48.110;11.660;2023-07-16T04:38:39;6.65;;;2.88;;
79348;SDS011;68817;48.110;11.660;2023-07-16T04:41:04;5.35;;;3.05;;
79348;SDS011;68817;48.110;11.660;2023-07-16T04:43:29;7.38;;;3.13;;
79348;SDS011;68817;48.110;11.660;2023-07-16T04:45:55;8.13;;;3.20;;
79348;SDS011;68817;48.110;11.660;2023-07-16T04:48:20;7.32;;;3.38;;
79348;SDS011;68817;48.110;11.660;2023-07-16T04:50:46;5.07;;;3.22;;
79348;SDS011;68817;48.110;11.660;2023-07-16T04:53:11;4.45;;;3.20;;
79348;SDS011;68817;48.110;11.660;2023-07-16T04:55:37;4.55;;;3.03;;
79348;SDS011;68817;48.110;11.660;2023-07-16T04:58:03;4.78;;;3.28;;
79348;SDS011;68817;48.110;11.660;2023-07-16T05:00:29;4.82;;;3.05;;
79348;SDS011;68817;48.110;11.660;2023-07-16T05:02:54;5.93;;;3.17;;
79348;SDS011;68817;48.110;11.660;2023-07-16T05:05:19;7.45;;;3.58;;
79348;SDS011;68817;48.110;11.660;2023-07-16T05:07:45;4.97;;;2.97;;
79348;SDS011;68817;48.110;11.660;2023-07-16T05:10:10;5.50;;;3.10;;
79348;SDS011;68817;48.110;11.660;2023-07-16T05:12:36;4.82;;;3.33;;
79348;SDS011;68817;48.110;11.660;2023-07-16T05:15:01;6.13;;;3.22;;
79348;SDS011;68817;48.110;11.660;2023-07-16T05:17:27;3.63;;;2.90;;
79348;SDS011;68817;48.110;11.660;2023-07-16T05:19:52;5.72;;;3.38;;
79348;SDS011;68817;48.110;11.660;2023-07-16T05:22:18;5.60;;;3.28;;
79348;SDS011;68817;48.110;11.660;2023-07-16T05:24:43;5.07;;;3.13;;
79348;SDS011;68817;48.110;11.660;2023-07-16T05:27:09;5.90;;;3.20;;
79348;SDS011;68817;48.110;11.660;2023-07-16T05:29:34;8.63;;;3.28;;
79348;SDS011;68817;48.110;11.660;2023-07-16T05:32:00;5.43;;;3.55;;
79348;SDS011;68817;48.110;11.660;2023-07-16T05:34:25;5.05;;;3.03;;
79348;SDS011;68817;48.110;11.660;2023-07-16T05:36:52;5.10;;;3.03;;
79348;SDS011;68817;48.110;11.660;2023-07-16T05:39:18;5.53;;;3.60;;
79348;SDS011;68817;48.110;11.660;2023-07-16T05:41:44;5.07;;;2.83;;
79348;SDS011;68817;48.110;11.660;2023-07-16T05:44:09;4.43;;;3.17;;
79348;SDS011;68817;48.110;11.660;2023-07-16T05:46:35;5.85;;;2.80;;
79348;SDS011;68817;48.110;11.660;2023-07-16T05:49:00;3.78;;;2.50;;
79348;SDS011;68817;48.110;11.660;2023-07-16T05:51:26;5.03;;;2.50;;
79348;SDS011;68817;48.110;11.660;2023-07-16T05:53:51;5.78;;;3.20;;
79348;SDS011;68817;48.110;11.660;2023-07-16T05:56:17;5.03;;;3.00;;
79348;SDS011;68817;48.110;11.660;2023-07-16T05:58:42;4.05;;;2.90;;
79348;SDS011;68817;48.110;11.660;2023-07-16T06:01:08;4.03;;;2.95;;
79348;SDS011;68817;48.110;11.660;2023-07-16T06:03:33;4.25;;;2.67;;
79348;SDS011;68817;48.110;11.660;2023-07-16T06:05:59;3.78;;;2.50;;
79348;SDS011;68817;48.110;11.660;2023-07-16T06:08:24;5.45;;;2.40;;
79348;SDS011;68817;48.110;11.660;2023-07-16T06:10:50;3.80;;;2.28;;
79348;SDS011;68817;48.110;11.660;2023-07-16T06:13:16;4.10;;;2.03;;
79348;SDS011;68817;48.110;11.660;2023-07-16T06:15:41;2.38;;;2.08;;
79348;SDS011;68817;48.110;11.660;2023-07-16T06:18:07;2.92;;;1.70;;
79348;SDS011;68817;48.110;11.660;2023-07-16T06:20:32;2.38;;;1.60;;
79348;SDS011;68817;48.110;11.660;2023-07-16T06:22:57;3.45;;;1.67;;
79348;SDS011;68817;48.110;11.660;2023-07-16T06:25:23;2.95;;;1.40;;
79348;SDS011;68817;48.110;11.660;2023-07-16T06:27:48;1.63;;;1.30;;
79348;SDS011;68817;48.110;11.660;2023-07-16T06:30:14;2.17;;;1.20;;
79348;SDS011;68817;48.110;11.660;2023-07-16T06:32:39;2.28;;;1.45;;
79348;SDS011;68817;48.110;11.660;2023-07-16T06:35:05;2.53;;;1.30;;
79348;SDS011;68817;48.110;11.660;2023-07-16T06:37:30;2.20;;;1.42;;
79348;SDS011;68817;48.110;11.660;2023-07-16T06:39:55;2.38;;;1.42;;
79348;SDS011;68817;48.110;11.660;2023-07-16T06:42:21;1.98;;;1.38;;
79348;SDS011;68817;48.110;11.660;2023-07-16T06:44:47;5.05;;;1.80;;
79348;SDS011;68817;48.110;11.660;2023-07-16T06:47:13;4.18;;;1.98;;
79348;SDS011;68817;48.110;11.660;2023-07-16T06:49:38;3.30;;;2.13;;
79348;SDS011;68817;48.110;11.660;2023-07-16T06:52:03;2.53;;;1.77;;
79348;SDS011;68817;48.110;11.660;2023-07-16T06:54:29;3.03;;;1.83;;
79348;SDS011;68817;48.110;11.660;2023-07-16T06:56:55;2.63;;;1.83;;
79348;SDS011;68817;48.110;11.660;2023-07-16T06:59:20;2.75;;;2.10;;
79348;SDS011;68817;48.110;11.660;2023-07-16T07:01:46;2.40;;;1.95;;
79348;SDS011;68817;48.110;11.660;2023-07-16T07:04:11;4.30;;;2.45;;
79348;SDS011;68817;48.110;11.660;2023-07-16T07:06:37;3.42;;;2.05;;
79348;SDS011;68817;48.110;11.660;2023-07-16T07:09:03;4.00;;;1.85;;
79348;SDS011;68817;48.110;11.660;2023-07-16T07:11:28;2.80;;;2.03;;
79348;SDS011;68817;48.110;11.660;2023-07-16T07:13:53;2.78;;;2.03;;
79348;SDS011;68817;48.110;11.660;2023-07-16T07:16:19;3.40;;;1.60;;
79348;SDS011;68817;48.110;11.660;2023-07-16T07:18:44;3.53;;;2.15;;
79348;SDS011;68817;48.110;11.660;2023-07-16T07:21:10;2.88;;;2.00;;
79348;SDS011;68817;48.110;11.660;2023-07-16T07:23:35;2.67;;;1.95;;
79348;SDS011;68817;48.110;11.660;2023-07-16T07:26:01;3.28;;;2.20;;
79348;SDS011;68817;48.110;11.660;2023-07-16T07:28:26;2.35;;;2.00;;
79348;SDS011;68817;48.110;11.660;2023-07-16T07:30:52;3.85;;;2.00;;
79348;SDS011;68817;48.110;11.660;2023-07-16T07:33:17;3.83;;;1.92;;
79348;SDS011;68817;48.110;11.660;2023-07-16T07:35:43;2.78;;;2.10;;
79348;SDS011;68817;48.110;11.660;2023-07-16T07:38:08;4.68;;;2.05;;
79348;SDS011;68817;48.110;11.660;2023-07-16T07:40:34;3.38;;;1.83;;
79348;SDS011;68817;48.110;11.660;2023-07-16T07:42:59;3.38;;;2.00;;
79348;SDS011;68817;48.110;11.660;2023-07-16T07:45:25;2.20;;;1.90;;
79348;SDS011;68817;48.110;11.660;2023-07-16T07:47:51;3.60;;;1.88;;
79348;SDS011;68817;48.110;11.660;2023-07-16T07:50:16;2.65;;;1.80;;
79348;SDS011;68817;48.110;11.660;2023-07-16T07:52:42;4.57;;;1.80;;
79348;SDS011;68817;48.110;11.660;2023-07-16T07:55:07;1.88;;;1.30;;
79348;SDS011;68817;48.110;11.660;2023-07-16T07:57:33;2.53;;;1.48;;
79348;SDS011;68817;48.110;11.660;2023-07-16T07:59:58;2.65;;;1.70;;
79348;SDS011;68817;48.110;11.660;2023-07-16T08:02:24;1.88;;;1.40;;
79348;SDS011;68817;48.110;11.660;2023-07-16T08:04:53;2.53;;;1.52;;
79348;SDS011;68817;48.110;11.660;2023-07-16T08:07:19;2.33;;;1.67;;
79348;SDS011;68817;48.110;11.660;2023-07-16T08:09:45;1.85;;;1.38;;
79348;SDS011;68817;48.110;11.660;2023-07-16T08:12:11;3.33;;;1.42;;
79348;SDS011;68817;48.110;11.660;2023-07-16T08:14:36;3.20;;;1.70;;
79348;SDS011;68817;48.110;11.660;2023-07-16T08:17:02;2.20;;;1.60;;
79348;SDS011;68817;48.110;11.660;2023-07-16T08:19:27;1.90;;;1.50;;
79348;SDS011;68817;48.110;11.660;2023-07-16T08:21:53;2.92;;;1.50;;
79348;SDS011;68817;48.110;11.660;2023-07-16T08:24:18;1.35;;;1.10;;
79348;SDS011;68817;48.110;11.660;2023-07-16T08:26:43;2.03;;;1.38;;
79348;SDS011;68817;48.110;11.660;2023-07-16T08:29:09;2.00;;;1.48;;
79348;SDS011;68817;48.110;11.660;2023-07-16T08:31:34;2.20;;;1.52;;
79348;SDS011;68817;48.110;11.660;2023-07-16T08:34:00;2.17;;;1.52;;
79348;SDS011;68817;48.110;11.660;2023-07-16T08:36:25;2.35;;;1.52;;
79348;SDS011;68817;48.110;11.660;2023-07-16T08:38:51;3.10;;;1.02;;
79348;SDS011;68817;48.110;11.660;2023-07-16T08:41:16;2.25;;;1.10;;
79348;SDS011;68817;48.110;11.660;2023-07-16T08:43:42;2.13;;;1.30;;
79348;SDS011;68817;48.110;11.660;2023-07-16T08:46:08;2.00;;;1.40;;
79348;SDS011;68817;48.110;11.660;2023-07-16T08:48:33;1.15;;;0.80;;
79348;SDS011;68817;48.110;11.660;2023-07-16T08:50:59;1.77;;;0.98;;
79348;SDS011;68817;48.110;11.660;2023-07-16T08:53:26;2.63;;;1.00;;
79348;SDS011;68817;48.110;11.660;2023-07-16T08:55:52;1.10;;;0.85;;
79348;SDS011;68817;48.110;11.660;2023-07-16T08:58:17;1.35;;;0.77;;
79348;SDS011;68817;48.110;11.660;2023-07-16T09:00:46;2.28;;;1.00;;
79348;SDS011;68817;48.110;11.660;2023-07-16T09:03:11;3.03;;;1.25;;
79348;SDS011;68817;48.110;11.660;2023-07-16T09:05:46;1.77;;;1.10;;
79348;SDS011;68817;48.110;11.660;2023-07-16T09:08:13;1.95;;;1.15;;
79348;SDS011;68817;48.110;11.660;2023-07-16T09:10:40;2.05;;;1.10;;
79348;SDS011;68817;48.110;11.660;2023-07-16T09:13:06;1.35;;;1.02;;
79348;SDS011;68817;48.110;11.660;2023-07-16T09:15:31;2.25;;;1.20;;
79348;SDS011;68817;48.110;11.660;2023-07-16T09:17:59;2.28;;;1.17;;
79348;SDS011;68817;48.110;11.660;2023-07-16T09:20:25;1.48;;;1.10;;
79348;SDS011;68817;48.110;11.660;2023-07-16T09:22:53;1.23;;;0.93;;
79348;SDS011;68817;48.110;11.660;2023-07-16T09:25:24;1.42;;;1.10;;
79348;SDS011;68817;48.110;11.660;2023-07-16T09:27:51;1.92;;;1.30;;
79348;SDS011;68817;48.110;11.660;2023-07-16T09:30:16;2.00;;;1.15;;
79348;SDS011;68817;48.110;11.660;2023-07-16T09:32:42;1.77;;;1.08;;
79348;SDS011;68817;48.110;11.660;2023-07-16T09:35:11;1.15;;;0.95;;
79348;SDS011;68817;48.110;11.660;2023-07-16T09:37:37;2.17;;;1.27;;
79348;SDS011;68817;48.110;11.660;2023-07-16T09:40:04;1.40;;;1.13;;
79348;SDS011;68817;48.110;11.660;2023-07-16T09:42:38;1.92;;;1.20;;
79348;SDS011;68817;48.110;11.660;2023-07-16T09:45:07;2.67;;;1.45;;
79348;SDS011;68817;48.110;11.660;2023-07-16T09:47:37;2.53;;;1.20;;
79348;SDS011;68817;48.110;11.660;2023-07-16T09:50:03;2.30;;;1.00;;
79348;SDS011;68817;48.110;11.660;2023-07-16T09:52:29;1.75;;;1.00;;
79348;SDS011;68817;48.110;11.660;2023-07-16T09:54:56;1.48;;;1.13;;
79348;SDS011;68817;48.110;11.660;2023-07-16T09:57:23;3.22;;;1.25;;
79348;SDS011;68817;48.110;11.660;2023-07-16T09:59:50;1.85;;;1.30;;
79348;SDS011;68817;48.110;11.660;2023-07-16T10:02:18;2.20;;;1.02;;
79348;SDS011;68817;48.110;11.660;2023-07-16T10:04:44;1.83;;;1.10;;
79348;SDS011;68817;48.110;11.660;2023-07-16T10:07:19;1.48;;;1.30;;
79348;SDS011;68817;48.110;11.660;2023-07-16T10:09:54;1.98;;;1.05;;
79348;SDS011;68817;48.110;11.660;2023-07-16T10:12:21;1.83;;;1.10;;
79348;SDS011;68817;48.110;11.660;2023-07-16T10:14:48;1.63;;;1.13;;
79348;SDS011;68817;48.110;11.660;2023-07-16T10:17:15;1.27;;;1.00;;
79348;SDS011;68817;48.110;11.660;2023-07-16T10:19:58;1.98;;;1.20;;
79348;SDS011;68817;48.110;11.660;2023-07-16T10:22:39;1.65;;;1.00;;
79348;SDS011;68817;48.110;11.660;2023-07-16T10:25:21;2.22;;;1.30;;
79348;SDS011;68817;48.110;11.660;2023-07-16T10:27:48;1.63;;;1.10;;
79348;SDS011;68817;48.110;11.660;2023-07-16T10:30:15;3.80;;;1.40;;
79348;SDS011;68817;48.110;11.660;2023-07-16T10:32:40;1.98;;;0.90;;
79348;SDS011;68817;48.110;11.660;2023-07-16T10:35:06;1.45;;;1.00;;
79348;SDS011;68817;48.110;11.660;2023-07-16T10:37:35;1.65;;;1.20;;
79348;SDS011;68817;48.110;11.660;2023-07-16T10:40:02;1.67;;;1.05;;
79348;SDS011;68817;48.110;11.660;2023-07-16T10:42:31;1.33;;;1.20;;
79348;SDS011;68817;48.110;11.660;2023-07-16T10:44:58;2.10;;;1.25;;
79348;SDS011;68817;48.110;11.660;2023-07-16T10:47:33;3.13;;;1.40;;
79348;SDS011;68817;48.110;11.660;2023-07-16T10:50:03;1.92;;;1.38;;
79348;SDS011;68817;48.110;11.660;2023-07-16T10:52:29;2.35;;;1.42;;
79348;SDS011;68817;48.110;11.660;2023-07-16T10:54:55;1.52;;;1.30;;
79348;SDS011;68817;48.110;11.660;2023-07-16T10:57:22;1.30;;;1.20;;
79348;SDS011;68817;48.110;11.660;2023-07-16T10:59:48;1.90;;;1.58;;
79348;SDS011;68817;48.110;11.660;2023-07-16T11:02:14;1.65;;;1.40;;
79348;SDS011;68817;48.110;11.660;2023-07-16T11:04:40;2.03;;;1.80;;
79348;SDS011;68817;48.110;11.660;2023-07-16T11:07:07;2.03;;;1.50;;
79348;SDS011;68817;48.110;11.660;2023-07-16T11:09:34;2.42;;;1.38;;
79348;SDS011;68817;48.110;11.660;2023-07-16T11:12:07;2.50;;;1.75;;
79348;SDS011;68817;48.110;11.660;2023-07-16T11:14:33;2.75;;;1.83;;
79348;SDS011;68817;48.110;11.660;2023-07-16T11:17:06;2.17;;;1.75;;
79348;SDS011;68817;48.110;11.660;2023-07-16T11:19:32;2.40;;;1.50;;
79348;SDS011;68817;48.110;11.660;2023-07-16T11:21:59;4.35;;;1.80;;
79348;SDS011;68817;48.110;11.660;2023-07-16T11:24:25;3.22;;;1.60;;
79348;SDS011;68817;48.110;11.660;2023-07-16T11:26:52;3.95;;;1.48;;
79348;SDS011;68817;48.110;11.660;2023-07-16T11:29:19;2.10;;;1.60;;
79348;SDS011;68817;48.110;11.660;2023-07-16T11:31:48;1.92;;;1.60;;
79348;SDS011;68817;48.110;11.660;2023-07-16T11:34:14;1.95;;;1.48;;
79348;SDS011;68817;48.110;11.660;2023-07-16T11:36:39;3.22;;;1.90;;
79348;SDS011;68817;48.110;11.660;2023-07-16T11:39:05;2.95;;;1.70;;
79348;SDS011;68817;48.110;11.660;2023-07-16T11:41:30;2.03;;;1.50;;
79348;SDS011;68817;48.110;11.660;2023-07-16T11:44:02;2.80;;;1.70;;
79348;SDS011;68817;48.110;11.660;2023-07-16T11:46:31;2.35;;;1.70;;
79348;SDS011;68817;48.110;11.660;2023-07-16T11:48:58;1.80;;;1.65;;
79348;SDS011;68817;48.110;11.660;2023-07-16T11:51:23;2.75;;;1.80;;
79348;SDS011;68817;48.110;11.660;2023-07-16T11:53:49;3.63;;;1.70;;
79348;SDS011;68817;48.110;11.660;2023-07-16T11:56:14;2.20;;;1.80;;
79348;SDS011;68817;48.110;11.660;2023-07-16T11:58:40;2.35;;;1.80;;
79348;SDS011;68817;48.110;11.660;2023-07-16T12:01:06;2.78;;;1.80;;
79348;SDS011;68817;48.110;11.660;2023-07-16T12:03:31;2.63;;;1.77;;
79348;SDS011;68817;48.110;11.660;2023-07-16T12:05:56;2.72;;;1.73;;
79348;SDS011;68817;48.110;11.660;2023-07-16T12:08:22;3.45;;;1.88;;
79348;SDS011;68817;48.110;11.660;2023-07-16T12:10:47;2.17;;;1.67;;
79348;SDS011;68817;48.110;11.660;2023-07-16T12:13:13;2.05;;;1.52;;
79348;SDS011;68817;48.110;11.660;2023-07-16T12:15:38;3.10;;;1.73;;
79348;SDS011;68817;48.110;11.660;2023-07-16T12:18:03;2.75;;;1.67;;
79348;SDS011;68817;48.110;11.660;2023-07-16T12:20:29;1.92;;;1.55;;
79348;SDS011;68817;48.110;11.660;2023-07-16T12:22:54;2.60;;;1.90;;
79348;SDS011;68817;48.110;11.660;2023-07-16T12:25:20;3.70;;;2.25;;
79348;SDS011;68817;48.110;11.660;2023-07-16T12:27:45;2.90;;;2.05;;
79348;SDS011;68817;48.110;11.660;2023-07-16T12:30:10;2.75;;;1.83;;
79348;SDS011;68817;48.110;11.660;2023-07-16T12:32:36;2.53;;;1.77;;
79348;SDS011;68817;48.110;11.660;2023-07-16T12:35:02;2.88;;;1.88;;
79348;SDS011;68817;48.110;11.660;2023-07-16T12:37:29;2.30;;;1.80;;
79348;SDS011;68817;48.110;11.660;2023-07-16T12:39:55;4.57;;;2.05;;
79348;SDS011;68817;48.110;11.660;2023-07-16T12:42:20;2.10;;;1.90;;
79348;SDS011;68817;48.110;11.660;2023-07-16T12:44:46;2.60;;;1.92;;
79348;SDS011;68817;48.110;11.660;2023-07-16T12:47:11;2.17;;;1.83;;
79348;SDS011;68817;48.110;11.660;2023-07-16T12:49:37;2.00;;;1.70;;
79348;SDS011;68817;48.110;11.660;2023-07-16T12:52:02;3.05;;;1.80;;
79348;SDS011;68817;48.110;11.660;2023-07-16T12:54:28;3.15;;;1.85;;
79348;SDS011;68817;48.110;11.660;2023-07-16T12:56:54;3.33;;;2.03;;
79348;SDS011;68817;48.110;11.660;2023-07-16T12:59:20;2.25;;;1.90;;
79348;SDS011;68817;48.110;11.660;2023-07-16T13:01:45;5.05;;;1.98;;
79348;SDS011;68817;48.110;11.660;2023-07-16T13:04:10;2.22;;;1.80;;
79348;SDS011;68817;48.110;11.660;2023-07-16T13:06:36;3.08;;;1.90;;
79348;SDS011;68817;48.110;11.660;2023-07-16T13:09:01;3.25;;;1.90;;
79348;SDS011;68817;48.110;11.660;2023-07-16T13:11:27;2.80;;;1.83;;
79348;SDS011;68817;48.110;11.660;2023-07-16T13:13:52;2.75;;;1.70;;
79348;SDS011;68817;48.110;11.660;2023-07-16T13:16:18;3.97;;;1.92;;
79348;SDS011;68817;48.110;11.660;2023-07-16T13:18:43;2.47;;;1.60;;
79348;SDS011;68817;48.110;11.660;2023-07-16T13:21:09;2.70;;;1.88;;
79348;SDS011;68817;48.110;11.660;2023-07-16T13:23:34;2.38;;;2.00;;
79348;SDS011;68817;48.110;11.660;2023-07-16T13:26:00;1.83;;;1.70;;
79348;SDS011;68817;48.110;11.660;2023-07-16T13:28:26;3.65;;;1.95;;
79348;SDS011;68817;48.110;11.660;2023-07-16T13:30:53;2.25;;;1.95;;
79348;SDS011;68817;48.110;11.660;2023-07-16T13:33:20;2.92;;;1.73;;
79348;SDS011;68817;48.110;11.660;2023-07-16T13:35:45;2.10;;;1.75;;
79348;SDS011;68817;48.110;11.660;2023-07-16T13:38:10;2.92;;;1.80;;
79348;SDS011;68817;48.110;11.660;2023-07-16T13:40:36;3.03;;;1.90;;
79348;SDS011;68817;48.110;11.660;2023-07-16T13:43:01;2.72;;;1.80;;
79348;SDS011;68817;48.110;11.660;2023-07-16T13:45:27;2.80;;;1.70;;
79348;SDS011;68817;48.110;11.660;2023-07-16T13:47:52;2.45;;;1.63;;
79348;SDS011;68817;48.110;11.660;2023-07-16T13:50:19;2.25;;;1.90;;
79348;SDS011;68817;48.110;11.660;2023-07-16T13:52:44;4.90;;;1.65;;
79348;SDS011;68817;48.110;11.660;2023-07-16T13:55:10;3.25;;;2.08;;
79348;SDS011;68817;48.110;11.660;2023-07-16T13:57:35;4.00;;;2.38;;
79348;SDS011;68817;48.110;11.660;2023-07-16T14:00:01;2.92;;;2.10;;
79348;SDS011;68817;48.110;11.660;2023-07-16T14:02:30;7.30;;;2.25;;
79348;SDS011;68817;48.110;11.660;2023-07-16T14:04:55;2.92;;;1.95;;
79348;SDS011;68817;48.110;11.660;2023-07-16T14:07:20;2.78;;;1.95;;
79348;SDS011;68817;48.110;11.660;2023-07-16T14:09:46;2.08;;;1.75;;
79348;SDS011;68817;48.110;11.660;2023-07-16T14:12:11;3.28;;;1.90;;
79348;SDS011;68817;48.110;11.660;2023-07-16T14:14:37;4.65;;;2.00;;
79348;SDS011;68817;48.110;11.660;2023-07-16T14:17:02;2.78;;;1.63;;
79348;SDS011;68817;48.110;11.660;2023-07-16T14:19:28;3.85;;;2.00;;
79348;SDS011;68817;48.110;11.660;2023-07-16T14:21:54;3.42;;;2.60;;
79348;SDS011;68817;48.110;11.660;2023-07-16T14:24:20;2.75;;;1.83;;
79348;SDS011;68817;48.110;11.660;2023-07-16T14:26:45;3.33;;;1.90;;
79348;SDS011;68817;48.110;11.660;2023-07-16T14:29:11;3.53;;;2.08;;